sensor_id;sensor_type;location;lat;lon;timestamp;P1;durP1;ratioP1;P2;durP2;ratioP2
13611;SDS011;6877;51.436;6.774;2023-05-10T00:00:19;29.35;;;13.77;;
13611;SDS011;6877;51.436;6.774;2023-05-10T00:02:46;29.88;;;14.07;;
13611;SDS011;6877;51.436;6.774;2023-05-10T00:05:13;27.52;;;13.70;;
13611;SDS011;6877;51.436;6.774;2023-05-10T00:07:40;27.90;;;13.88;;
13611;SDS011;6877;51.436;6.774;2023-05-10T00:10:06;23.52;;;12.48;;
13611;SDS011;6877;51.436;6.774;2023-05-10T00:12:33;25.25;;;13.82;;
13611;SDS011;6877;51.436;6.774;2023-05-10T00:15:00;28.95;;;13.38;;
13611;SDS011;6877;51.436;6.774;2023-05-10T00:17:26;22.90;;;11.88;;
13611;SDS011;6877;51.436;6.774;2023-05-10T00:19:58;24.98;;;12.57;;
13611;SDS011;6877;51.436;6.774;2023-05-10T00:22:25;23.80;;;12.38;;
13611;SDS011;6877;51.436;6.774;2023-05-10T00:24:51;19.70;;;10.73;;
13611;SDS011;6877;51.436;6.774;2023-05-10T00:27:17;20.90;;;11.85;;
13611;SDS011;6877;51.436;6.774;2023-05-10T00:29:46;21.60;;;11.57;;
13611;SDS011;6877;51.436;6.774;2023-05-10T00:32:13;24.27;;;11.68;;
13611;SDS011;6877;51.436;6.774;2023-05-10T00:34:39;27.95;;;13.90;;
13611;SDS011;6877;51.436;6.774;2023-05-10T00:37:08;23.45;;;11.63;;
13611;SDS011;6877;51.436;6.774;2023-05-10T00:39:34;29.38;;;13.95;;
13611;SDS011;6877;51.436;6.774;2023-05-10T00:42:00;21.50;;;11.70;;
13611;SDS011;6877;51.436;6.774;2023-05-10T00:44:27;26.60;;;13.02;;
13611;SDS011;6877;51.436;6.774;2023-05-10T00:46:57;25.98;;;13.32;;
13611;SDS011;6877;51.436;6.774;2023-05-10T00:49:24;25.65;;;11.88;;
13611;SDS011;6877;51.436;6.774;2023-05-10T00:51:54;30.70;;;13.98;;
13611;SDS011;6877;51.436;6.774;2023-05-10T00:54:21;25.60;;;13.65;;
13611;SDS011;6877;51.436;6.774;2023-05-10T00:56:52;26.25;;;14.68;;
13611;SDS011;6877;51.436;6.774;2023-05-10T00:59:24;32.83;;;15.32;;
13611;SDS011;6877;51.436;6.774;2023-05-10T01:01:51;27.67;;;13.20;;
13611;SDS011;6877;51.436;6.774;2023-05-10T01:04:23;25.52;;;12.18;;
13611;SDS011;6877;51.436;6.774;2023-05-10T01:06:56;33.78;;;14.35;;
13611;SDS011;6877;51.436;6.774;2023-05-10T01:09:23;24.08;;;13.73;;
13611;SDS011;6877;51.436;6.774;2023-05-10T01:11:57;29.73;;;14.35;;
13611;SDS011;6877;51.436;6.774;2023-05-10T01:14:24;32.28;;;16.02;;
13611;SDS011;6877;51.436;6.774;2023-05-10T01:16:52;32.05;;;15.98;;
13611;SDS011;6877;51.436;6.774;2023-05-10T01:19:22;30.48;;;15.82;;
13611;SDS011;6877;51.436;6.774;2023-05-10T01:24:45;28.67;;;15.35;;
13611;SDS011;6877;51.436;6.774;2023-05-10T01:35:38;29.35;;;13.30;;
13611;SDS011;6877;51.436;6.774;2023-05-10T01:38:13;24.25;;;13.73;;
13611;SDS011;6877;51.436;6.774;2023-05-10T01:43:36;26.08;;;13.13;;
13611;SDS011;6877;51.436;6.774;2023-05-10T01:46:14;27.40;;;14.05;;
13611;SDS011;6877;51.436;6.774;2023-05-10T01:48:54;26.17;;;12.77;;
13611;SDS011;6877;51.436;6.774;2023-05-10T01:51:23;26.38;;;12.85;;
13611;SDS011;6877;51.436;6.774;2023-05-10T01:53:54;29.48;;;14.20;;
13611;SDS011;6877;51.436;6.774;2023-05-10T01:56:28;27.20;;;13.60;;
13611;SDS011;6877;51.436;6.774;2023-05-10T01:58:56;26.85;;;14.38;;
13611;SDS011;6877;51.436;6.774;2023-05-10T02:01:25;22.27;;;12.35;;
13611;SDS011;6877;51.436;6.774;2023-05-10T02:03:53;31.73;;;15.07;;
13611;SDS011;6877;51.436;6.774;2023-05-10T02:06:21;28.27;;;14.80;;
13611;SDS011;6877;51.436;6.774;2023-05-10T02:08:49;32.88;;;16.35;;
13611;SDS011;6877;51.436;6.774;2023-05-10T02:11:17;32.83;;;16.83;;
13611;SDS011;6877;51.436;6.774;2023-05-10T02:13:48;31.52;;;16.88;;
13611;SDS011;6877;51.436;6.774;2023-05-10T02:16:16;33.03;;;15.57;;
13611;SDS011;6877;51.436;6.774;2023-05-10T02:18:44;41.50;;;19.27;;
13611;SDS011;6877;51.436;6.774;2023-05-10T02:21:12;37.72;;;16.33;;
13611;SDS011;6877;51.436;6.774;2023-05-10T02:23:41;33.25;;;16.90;;
13611;SDS011;6877;51.436;6.774;2023-05-10T02:26:09;37.20;;;18.25;;
13611;SDS011;6877;51.436;6.774;2023-05-10T02:28:41;35.78;;;18.33;;
13611;SDS011;6877;51.436;6.774;2023-05-10T02:31:08;32.53;;;16.02;;
13611;SDS011;6877;51.436;6.774;2023-05-10T02:33:36;37.20;;;17.80;;
13611;SDS011;6877;51.436;6.774;2023-05-10T02:36:06;36.17;;;18.58;;
13611;SDS011;6877;51.436;6.774;2023-05-10T02:38:39;42.38;;;19.10;;
13611;SDS011;6877;51.436;6.774;2023-05-10T02:41:07;35.88;;;17.45;;
13611;SDS011;6877;51.436;6.774;2023-05-10T02:43:36;37.83;;;19.20;;
13611;SDS011;6877;51.436;6.774;2023-05-10T02:46:05;35.70;;;16.58;;
13611;SDS011;6877;51.436;6.774;2023-05-10T02:48:36;40.65;;;19.63;;
13611;SDS011;6877;51.436;6.774;2023-05-10T02:51:04;47.35;;;21.70;;
13611;SDS011;6877;51.436;6.774;2023-05-10T02:53:33;41.85;;;19.98;;
13611;SDS011;6877;51.436;6.774;2023-05-10T02:56:04;43.53;;;20.02;;
13611;SDS011;6877;51.436;6.774;2023-05-10T02:58:35;34.40;;;17.08;;
13611;SDS011;6877;51.436;6.774;2023-05-10T03:01:07;31.27;;;16.00;;
13611;SDS011;6877;51.436;6.774;2023-05-10T03:03:33;29.80;;;16.48;;
13611;SDS011;6877;51.436;6.774;2023-05-10T03:06:00;34.03;;;17.17;;
13611;SDS011;6877;51.436;6.774;2023-05-10T03:08:27;30.50;;;14.65;;
13611;SDS011;6877;51.436;6.774;2023-05-10T03:10:59;29.73;;;14.63;;
13611;SDS011;6877;51.436;6.774;2023-05-10T03:13:47;29.15;;;15.98;;
13611;SDS011;6877;51.436;6.774;2023-05-10T03:16:32;34.53;;;14.98;;
13611;SDS011;6877;51.436;6.774;2023-05-10T03:22:03;33.75;;;16.02;;
13611;SDS011;6877;51.436;6.774;2023-05-10T03:24:34;43.67;;;17.27;;
13611;SDS011;6877;51.436;6.774;2023-05-10T03:27:02;46.20;;;17.67;;
13611;SDS011;6877;51.436;6.774;2023-05-10T03:29:35;44.13;;;18.23;;
13611;SDS011;6877;51.436;6.774;2023-05-10T03:32:03;50.33;;;18.80;;
13611;SDS011;6877;51.436;6.774;2023-05-10T03:34:35;41.30;;;19.50;;
13611;SDS011;6877;51.436;6.774;2023-05-10T03:37:13;45.60;;;19.15;;
13611;SDS011;6877;51.436;6.774;2023-05-10T03:39:39;44.25;;;18.85;;
13611;SDS011;6877;51.436;6.774;2023-05-10T03:42:06;49.42;;;19.88;;
13611;SDS011;6877;51.436;6.774;2023-05-10T03:44:32;53.65;;;21.13;;
13611;SDS011;6877;51.436;6.774;2023-05-10T03:46:59;46.75;;;20.38;;
13611;SDS011;6877;51.436;6.774;2023-05-10T03:49:25;50.13;;;20.45;;
13611;SDS011;6877;51.436;6.774;2023-05-10T03:51:52;47.35;;;21.45;;
13611;SDS011;6877;51.436;6.774;2023-05-10T03:54:18;57.70;;;20.90;;
13611;SDS011;6877;51.436;6.774;2023-05-10T03:56:45;48.75;;;22.58;;
13611;SDS011;6877;51.436;6.774;2023-05-10T03:59:13;49.17;;;21.50;;
13611;SDS011;6877;51.436;6.774;2023-05-10T04:01:45;50.42;;;21.73;;
13611;SDS011;6877;51.436;6.774;2023-05-10T04:04:11;50.75;;;21.80;;
13611;SDS011;6877;51.436;6.774;2023-05-10T04:06:38;50.17;;;21.75;;
13611;SDS011;6877;51.436;6.774;2023-05-10T04:09:09;44.17;;;20.35;;
13611;SDS011;6877;51.436;6.774;2023-05-10T04:11:41;46.90;;;21.83;;
13611;SDS011;6877;51.436;6.774;2023-05-10T04:14:08;48.83;;;19.45;;
13611;SDS011;6877;51.436;6.774;2023-05-10T04:16:34;48.75;;;20.77;;
13611;SDS011;6877;51.436;6.774;2023-05-10T04:19:06;54.67;;;23.00;;
13611;SDS011;6877;51.436;6.774;2023-05-10T04:21:32;48.35;;;20.60;;
13611;SDS011;6877;51.436;6.774;2023-05-10T04:24:03;46.22;;;20.48;;
13611;SDS011;6877;51.436;6.774;2023-05-10T04:26:35;47.72;;;21.23;;
13611;SDS011;6877;51.436;6.774;2023-05-10T04:29:01;55.83;;;25.08;;
13611;SDS011;6877;51.436;6.774;2023-05-10T04:31:33;55.50;;;24.50;;
13611;SDS011;6877;51.436;6.774;2023-05-10T04:34:07;54.97;;;22.02;;
13611;SDS011;6877;51.436;6.774;2023-05-10T04:36:33;49.03;;;26.35;;
13611;SDS011;6877;51.436;6.774;2023-05-10T04:39:02;57.42;;;26.10;;
13611;SDS011;6877;51.436;6.774;2023-05-10T04:41:29;61.22;;;26.38;;
13611;SDS011;6877;51.436;6.774;2023-05-10T04:43:56;52.83;;;24.95;;
13611;SDS011;6877;51.436;6.774;2023-05-10T04:46:22;60.08;;;26.52;;
13611;SDS011;6877;51.436;6.774;2023-05-10T04:48:48;61.97;;;26.90;;
13611;SDS011;6877;51.436;6.774;2023-05-10T04:51:15;59.17;;;27.60;;
13611;SDS011;6877;51.436;6.774;2023-05-10T04:53:47;59.03;;;26.65;;
13611;SDS011;6877;51.436;6.774;2023-05-10T04:56:18;57.47;;;26.35;;
13611;SDS011;6877;51.436;6.774;2023-05-10T04:58:49;59.13;;;28.17;;
13611;SDS011;6877;51.436;6.774;2023-05-10T05:01:21;60.70;;;28.23;;
13611;SDS011;6877;51.436;6.774;2023-05-10T05:03:54;64.28;;;25.40;;
13611;SDS011;6877;51.436;6.774;2023-05-10T05:06:20;61.25;;;28.23;;
13611;SDS011;6877;51.436;6.774;2023-05-10T05:08:51;52.58;;;26.85;;
13611;SDS011;6877;51.436;6.774;2023-05-10T05:11:23;56.90;;;26.30;;
13611;SDS011;6877;51.436;6.774;2023-05-10T05:13:54;55.03;;;25.63;;
13611;SDS011;6877;51.436;6.774;2023-05-10T05:16:21;59.70;;;26.83;;
13611;SDS011;6877;51.436;6.774;2023-05-10T05:18:52;59.85;;;26.10;;
13611;SDS011;6877;51.436;6.774;2023-05-10T05:21:24;48.50;;;24.33;;
13611;SDS011;6877;51.436;6.774;2023-05-10T05:23:57;54.25;;;25.13;;
13611;SDS011;6877;51.436;6.774;2023-05-10T05:26:29;50.53;;;24.70;;
13611;SDS011;6877;51.436;6.774;2023-05-10T05:28:55;54.20;;;27.10;;
13611;SDS011;6877;51.436;6.774;2023-05-10T05:31:21;52.95;;;24.40;;
13611;SDS011;6877;51.436;6.774;2023-05-10T05:33:48;47.33;;;23.33;;
13611;SDS011;6877;51.436;6.774;2023-05-10T05:36:14;58.53;;;25.98;;
13611;SDS011;6877;51.436;6.774;2023-05-10T05:38:41;46.10;;;22.20;;
13611;SDS011;6877;51.436;6.774;2023-05-10T05:41:12;48.30;;;24.85;;
13611;SDS011;6877;51.436;6.774;2023-05-10T05:43:43;51.83;;;24.45;;
13611;SDS011;6877;51.436;6.774;2023-05-10T05:46:10;51.38;;;24.85;;
13611;SDS011;6877;51.436;6.774;2023-05-10T05:48:36;48.63;;;23.48;;
13611;SDS011;6877;51.436;6.774;2023-05-10T05:51:02;49.85;;;24.90;;
13611;SDS011;6877;51.436;6.774;2023-05-10T05:53:34;43.58;;;22.35;;
13611;SDS011;6877;51.436;6.774;2023-05-10T05:56:00;54.33;;;25.27;;
13611;SDS011;6877;51.436;6.774;2023-05-10T05:58:31;52.30;;;26.05;;
13611;SDS011;6877;51.436;6.774;2023-05-10T06:00:58;62.47;;;29.02;;
13611;SDS011;6877;51.436;6.774;2023-05-10T06:03:24;63.65;;;28.23;;
13611;SDS011;6877;51.436;6.774;2023-05-10T06:05:51;61.03;;;27.27;;
13611;SDS011;6877;51.436;6.774;2023-05-10T06:08:22;58.35;;;26.42;;
13611;SDS011;6877;51.436;6.774;2023-05-10T06:10:53;79.45;;;28.42;;
13611;SDS011;6877;51.436;6.774;2023-05-10T06:13:20;63.83;;;27.75;;
13611;SDS011;6877;51.436;6.774;2023-05-10T06:15:46;58.13;;;27.70;;
13611;SDS011;6877;51.436;6.774;2023-05-10T06:18:17;60.30;;;28.88;;
13611;SDS011;6877;51.436;6.774;2023-05-10T06:20:44;60.38;;;28.23;;
13611;SDS011;6877;51.436;6.774;2023-05-10T06:23:10;72.18;;;30.75;;
13611;SDS011;6877;51.436;6.774;2023-05-10T06:25:37;69.32;;;31.75;;
13611;SDS011;6877;51.436;6.774;2023-05-10T06:28:04;70.47;;;29.77;;
13611;SDS011;6877;51.436;6.774;2023-05-10T06:30:30;63.40;;;26.30;;
13611;SDS011;6877;51.436;6.774;2023-05-10T06:32:57;70.22;;;31.45;;
13611;SDS011;6877;51.436;6.774;2023-05-10T06:35:23;73.20;;;31.98;;
13611;SDS011;6877;51.436;6.774;2023-05-10T06:37:50;69.03;;;27.00;;
13611;SDS011;6877;51.436;6.774;2023-05-10T06:40:17;76.68;;;31.35;;
13611;SDS011;6877;51.436;6.774;2023-05-10T06:42:44;77.05;;;31.60;;
13611;SDS011;6877;51.436;6.774;2023-05-10T06:45:16;70.25;;;30.40;;
13611;SDS011;6877;51.436;6.774;2023-05-10T06:47:43;73.18;;;30.08;;
13611;SDS011;6877;51.436;6.774;2023-05-10T06:50:10;75.18;;;31.02;;
13611;SDS011;6877;51.436;6.774;2023-05-10T06:52:39;75.35;;;29.35;;
13611;SDS011;6877;51.436;6.774;2023-05-10T06:55:06;71.35;;;29.35;;
13611;SDS011;6877;51.436;6.774;2023-05-10T06:57:39;68.95;;;30.17;;
13611;SDS011;6877;51.436;6.774;2023-05-10T07:00:07;60.92;;;30.60;;
13611;SDS011;6877;51.436;6.774;2023-05-10T07:02:39;74.70;;;31.17;;
13611;SDS011;6877;51.436;6.774;2023-05-10T07:05:05;70.65;;;30.40;;
13611;SDS011;6877;51.436;6.774;2023-05-10T07:07:32;65.35;;;29.45;;
13611;SDS011;6877;51.436;6.774;2023-05-10T07:09:59;67.03;;;27.55;;
13611;SDS011;6877;51.436;6.774;2023-05-10T07:12:30;69.55;;;30.27;;
13611;SDS011;6877;51.436;6.774;2023-05-10T07:14:57;61.30;;;29.00;;
13611;SDS011;6877;51.436;6.774;2023-05-10T07:17:23;54.63;;;24.73;;
13611;SDS011;6877;51.436;6.774;2023-05-10T07:19:49;59.10;;;26.20;;
13611;SDS011;6877;51.436;6.774;2023-05-10T07:22:16;57.30;;;23.83;;
13611;SDS011;6877;51.436;6.774;2023-05-10T07:24:43;58.85;;;26.63;;
13611;SDS011;6877;51.436;6.774;2023-05-10T07:27:10;57.08;;;26.88;;
13611;SDS011;6877;51.436;6.774;2023-05-10T07:29:42;44.60;;;22.42;;
13611;SDS011;6877;51.436;6.774;2023-05-10T07:32:08;57.90;;;24.17;;
13611;SDS011;6877;51.436;6.774;2023-05-10T07:34:39;64.53;;;27.23;;
13611;SDS011;6877;51.436;6.774;2023-05-10T07:37:06;57.03;;;24.30;;
13611;SDS011;6877;51.436;6.774;2023-05-10T07:39:33;44.13;;;21.77;;
13611;SDS011;6877;51.436;6.774;2023-05-10T07:41:59;48.90;;;23.30;;
13611;SDS011;6877;51.436;6.774;2023-05-10T07:44:26;42.13;;;21.92;;
13611;SDS011;6877;51.436;6.774;2023-05-10T07:46:52;40.92;;;19.65;;
13611;SDS011;6877;51.436;6.774;2023-05-10T07:49:19;37.88;;;19.13;;
13611;SDS011;6877;51.436;6.774;2023-05-10T07:51:45;39.70;;;18.77;;
13611;SDS011;6877;51.436;6.774;2023-05-10T07:54:12;39.00;;;18.13;;
13611;SDS011;6877;51.436;6.774;2023-05-10T07:56:38;34.13;;;17.83;;
13611;SDS011;6877;51.436;6.774;2023-05-10T07:59:05;31.33;;;15.68;;
13611;SDS011;6877;51.436;6.774;2023-05-10T08:01:33;35.05;;;17.90;;
13611;SDS011;6877;51.436;6.774;2023-05-10T08:04:00;35.67;;;18.67;;
13611;SDS011;6877;51.436;6.774;2023-05-10T08:06:27;44.88;;;20.83;;
13611;SDS011;6877;51.436;6.774;2023-05-10T08:08:55;38.90;;;21.45;;
13611;SDS011;6877;51.436;6.774;2023-05-10T08:11:22;41.80;;;20.73;;
13611;SDS011;6877;51.436;6.774;2023-05-10T08:13:49;37.55;;;19.60;;
13611;SDS011;6877;51.436;6.774;2023-05-10T08:16:16;50.20;;;22.02;;
13611;SDS011;6877;51.436;6.774;2023-05-10T08:18:48;41.42;;;20.15;;
13611;SDS011;6877;51.436;6.774;2023-05-10T08:21:16;37.55;;;20.15;;
13611;SDS011;6877;51.436;6.774;2023-05-10T08:23:43;41.45;;;19.90;;
13611;SDS011;6877;51.436;6.774;2023-05-10T08:26:10;41.88;;;21.27;;
13611;SDS011;6877;51.436;6.774;2023-05-10T08:28:36;39.60;;;19.92;;
13611;SDS011;6877;51.436;6.774;2023-05-10T08:31:03;39.72;;;18.95;;
13611;SDS011;6877;51.436;6.774;2023-05-10T08:33:30;38.10;;;20.25;;
13611;SDS011;6877;51.436;6.774;2023-05-10T08:36:02;37.53;;;19.00;;
13611;SDS011;6877;51.436;6.774;2023-05-10T08:38:28;32.58;;;16.65;;
13611;SDS011;6877;51.436;6.774;2023-05-10T08:40:55;38.47;;;19.40;;
13611;SDS011;6877;51.436;6.774;2023-05-10T08:43:22;31.65;;;16.05;;
13611;SDS011;6877;51.436;6.774;2023-05-10T08:45:54;32.25;;;17.15;;
13611;SDS011;6877;51.436;6.774;2023-05-10T08:48:27;31.88;;;16.08;;
13611;SDS011;6877;51.436;6.774;2023-05-10T08:50:56;28.75;;;17.08;;
13611;SDS011;6877;51.436;6.774;2023-05-10T08:53:25;32.00;;;17.95;;
13611;SDS011;6877;51.436;6.774;2023-05-10T08:55:54;33.42;;;18.27;;
13611;SDS011;6877;51.436;6.774;2023-05-10T08:58:21;30.35;;;16.58;;
13611;SDS011;6877;51.436;6.774;2023-05-10T09:00:48;31.67;;;17.90;;
13611;SDS011;6877;51.436;6.774;2023-05-10T09:03:21;34.55;;;18.05;;
13611;SDS011;6877;51.436;6.774;2023-05-10T09:05:48;37.00;;;17.27;;
13611;SDS011;6877;51.436;6.774;2023-05-10T09:08:15;38.72;;;19.83;;
13611;SDS011;6877;51.436;6.774;2023-05-10T09:10:45;35.15;;;18.20;;
13611;SDS011;6877;51.436;6.774;2023-05-10T09:13:13;35.00;;;18.25;;
13611;SDS011;6877;51.436;6.774;2023-05-10T09:15:46;27.55;;;13.68;;
13611;SDS011;6877;51.436;6.774;2023-05-10T09:18:13;29.35;;;14.27;;
13611;SDS011;6877;51.436;6.774;2023-05-10T09:20:40;29.42;;;14.30;;
13611;SDS011;6877;51.436;6.774;2023-05-10T09:23:06;29.27;;;14.80;;
13611;SDS011;6877;51.436;6.774;2023-05-10T09:25:33;29.20;;;15.98;;
13611;SDS011;6877;51.436;6.774;2023-05-10T09:27:59;28.40;;;15.02;;
13611;SDS011;6877;51.436;6.774;2023-05-10T09:30:27;28.20;;;14.15;;
13611;SDS011;6877;51.436;6.774;2023-05-10T09:32:55;30.95;;;15.23;;
13611;SDS011;6877;51.436;6.774;2023-05-10T09:35:24;25.23;;;14.48;;
13611;SDS011;6877;51.436;6.774;2023-05-10T09:37:55;25.63;;;14.63;;
13611;SDS011;6877;51.436;6.774;2023-05-10T09:40:23;25.75;;;14.35;;
13611;SDS011;6877;51.436;6.774;2023-05-10T09:45:28;24.90;;;14.77;;
13611;SDS011;6877;51.436;6.774;2023-05-10T09:47:56;25.08;;;13.18;;
13611;SDS011;6877;51.436;6.774;2023-05-10T09:50:29;26.60;;;13.65;;
13611;SDS011;6877;51.436;6.774;2023-05-10T09:53:02;21.80;;;13.40;;
13611;SDS011;6877;51.436;6.774;2023-05-10T09:58:02;29.13;;;14.60;;
13611;SDS011;6877;51.436;6.774;2023-05-10T10:00:33;28.70;;;13.70;;
13611;SDS011;6877;51.436;6.774;2023-05-10T10:03:02;27.67;;;14.32;;
13611;SDS011;6877;51.436;6.774;2023-05-10T10:07:59;23.98;;;14.85;;
13611;SDS011;6877;51.436;6.774;2023-05-10T10:10:32;29.48;;;15.50;;
13611;SDS011;6877;51.436;6.774;2023-05-10T10:12:59;26.50;;;13.55;;
13611;SDS011;6877;51.436;6.774;2023-05-10T10:15:26;27.75;;;13.82;;
13611;SDS011;6877;51.436;6.774;2023-05-10T10:17:52;23.73;;;13.45;;
13611;SDS011;6877;51.436;6.774;2023-05-10T10:20:20;26.33;;;13.80;;
13611;SDS011;6877;51.436;6.774;2023-05-10T10:22:48;28.10;;;14.70;;
13611;SDS011;6877;51.436;6.774;2023-05-10T10:25:15;24.98;;;14.95;;
13611;SDS011;6877;51.436;6.774;2023-05-10T10:36:17;29.65;;;13.75;;
13611;SDS011;6877;51.436;6.774;2023-05-10T10:41:27;24.38;;;12.60;;
13611;SDS011;6877;51.436;6.774;2023-05-10T10:57:29;27.25;;;14.98;;
13611;SDS011;6877;51.436;6.774;2023-05-10T11:05:23;33.47;;;17.08;;
13611;SDS011;6877;51.436;6.774;2023-05-10T11:07:51;29.23;;;16.73;;
13611;SDS011;6877;51.436;6.774;2023-05-10T11:10:19;34.22;;;18.38;;
13611;SDS011;6877;51.436;6.774;2023-05-10T11:12:57;31.17;;;17.30;;
13611;SDS011;6877;51.436;6.774;2023-05-10T11:15:48;33.13;;;18.35;;
13611;SDS011;6877;51.436;6.774;2023-05-10T11:18:16;28.02;;;15.40;;
13611;SDS011;6877;51.436;6.774;2023-05-10T11:20:43;28.70;;;16.95;;
13611;SDS011;6877;51.436;6.774;2023-05-10T11:23:11;25.63;;;14.70;;
13611;SDS011;6877;51.436;6.774;2023-05-10T11:25:42;30.02;;;15.38;;
13611;SDS011;6877;51.436;6.774;2023-05-10T11:28:12;23.70;;;13.55;;
13611;SDS011;6877;51.436;6.774;2023-05-10T11:30:39;21.58;;;12.73;;
13611;SDS011;6877;51.436;6.774;2023-05-10T11:33:07;21.42;;;11.85;;
13611;SDS011;6877;51.436;6.774;2023-05-10T11:35:38;20.83;;;12.95;;
13611;SDS011;6877;51.436;6.774;2023-05-10T11:38:06;21.10;;;12.45;;
13611;SDS011;6877;51.436;6.774;2023-05-10T11:40:33;20.38;;;11.85;;
13611;SDS011;6877;51.436;6.774;2023-05-10T11:43:01;19.67;;;10.82;;
13611;SDS011;6877;51.436;6.774;2023-05-10T11:45:28;20.95;;;11.57;;
13611;SDS011;6877;51.436;6.774;2023-05-10T11:47:56;16.27;;;9.50;;
13611;SDS011;6877;51.436;6.774;2023-05-10T11:50:23;18.70;;;10.45;;
13611;SDS011;6877;51.436;6.774;2023-05-10T11:52:51;13.13;;;9.43;;
13611;SDS011;6877;51.436;6.774;2023-05-10T11:55:18;11.38;;;7.05;;
13611;SDS011;6877;51.436;6.774;2023-05-10T11:57:45;11.40;;;7.90;;
13611;SDS011;6877;51.436;6.774;2023-05-10T12:00:15;16.45;;;9.23;;
13611;SDS011;6877;51.436;6.774;2023-05-10T12:02:41;11.73;;;7.28;;
13611;SDS011;6877;51.436;6.774;2023-05-10T12:05:08;12.77;;;7.28;;
13611;SDS011;6877;51.436;6.774;2023-05-10T12:07:35;9.20;;;6.25;;
13611;SDS011;6877;51.436;6.774;2023-05-10T12:10:12;18.27;;;9.25;;
13611;SDS011;6877;51.436;6.774;2023-05-10T12:12:44;11.68;;;7.45;;
13611;SDS011;6877;51.436;6.774;2023-05-10T12:15:23;11.30;;;7.47;;
13611;SDS011;6877;51.436;6.774;2023-05-10T12:17:50;10.93;;;6.80;;
13611;SDS011;6877;51.436;6.774;2023-05-10T12:22:50;13.50;;;7.10;;
13611;SDS011;6877;51.436;6.774;2023-05-10T12:25:18;9.68;;;6.57;;
13611;SDS011;6877;51.436;6.774;2023-05-10T12:27:53;13.07;;;7.13;;
13611;SDS011;6877;51.436;6.774;2023-05-10T12:30:27;11.77;;;7.43;;
13611;SDS011;6877;51.436;6.774;2023-05-10T12:33:02;12.52;;;6.97;;
13611;SDS011;6877;51.436;6.774;2023-05-10T12:35:48;11.68;;;6.70;;
13611;SDS011;6877;51.436;6.774;2023-05-10T12:41:09;14.80;;;7.13;;
13611;SDS011;6877;51.436;6.774;2023-05-10T12:43:37;8.65;;;5.80;;
13611;SDS011;6877;51.436;6.774;2023-05-10T12:46:14;8.45;;;5.80;;
13611;SDS011;6877;51.436;6.774;2023-05-10T12:48:43;11.75;;;6.10;;
13611;SDS011;6877;51.436;6.774;2023-05-10T12:51:10;8.10;;;5.03;;
13611;SDS011;6877;51.436;6.774;2023-05-10T12:53:39;9.43;;;4.90;;
13611;SDS011;6877;51.436;6.774;2023-05-10T12:56:06;7.18;;;4.80;;
13611;SDS011;6877;51.436;6.774;2023-05-10T12:58:33;11.55;;;5.65;;
13611;SDS011;6877;51.436;6.774;2023-05-10T13:01:00;9.13;;;5.97;;
13611;SDS011;6877;51.436;6.774;2023-05-10T13:03:26;11.05;;;5.68;;
13611;SDS011;6877;51.436;6.774;2023-05-10T13:05:53;11.73;;;6.00;;
13611;SDS011;6877;51.436;6.774;2023-05-10T13:08:19;11.38;;;6.78;;
13611;SDS011;6877;51.436;6.774;2023-05-10T13:10:46;13.00;;;5.13;;
13611;SDS011;6877;51.436;6.774;2023-05-10T13:13:17;9.23;;;6.65;;
13611;SDS011;6877;51.436;6.774;2023-05-10T13:15:44;10.43;;;7.15;;
13611;SDS011;6877;51.436;6.774;2023-05-10T13:18:10;15.77;;;6.45;;
13611;SDS011;6877;51.436;6.774;2023-05-10T13:20:37;10.77;;;6.40;;
13611;SDS011;6877;51.436;6.774;2023-05-10T13:23:03;7.50;;;4.90;;
13611;SDS011;6877;51.436;6.774;2023-05-10T13:25:30;9.63;;;5.82;;
13611;SDS011;6877;51.436;6.774;2023-05-10T13:27:56;13.40;;;7.88;;
13611;SDS011;6877;51.436;6.774;2023-05-10T13:30:23;6.78;;;5.00;;
13611;SDS011;6877;51.436;6.774;2023-05-10T13:32:50;7.43;;;4.90;;
13611;SDS011;6877;51.436;6.774;2023-05-10T13:35:21;7.60;;;5.72;;
13611;SDS011;6877;51.436;6.774;2023-05-10T13:37:53;9.38;;;5.28;;
13611;SDS011;6877;51.436;6.774;2023-05-10T13:40:22;14.18;;;5.55;;
13611;SDS011;6877;51.436;6.774;2023-05-10T13:42:49;12.82;;;7.03;;
13611;SDS011;6877;51.436;6.774;2023-05-10T13:45:15;10.15;;;6.72;;
13611;SDS011;6877;51.436;6.774;2023-05-10T13:47:42;13.07;;;7.05;;
13611;SDS011;6877;51.436;6.774;2023-05-10T13:50:08;8.90;;;6.20;;
13611;SDS011;6877;51.436;6.774;2023-05-10T13:52:35;8.40;;;5.93;;
13611;SDS011;6877;51.436;6.774;2023-05-10T13:55:02;14.35;;;7.68;;
13611;SDS011;6877;51.436;6.774;2023-05-10T13:57:28;11.35;;;6.88;;
13611;SDS011;6877;51.436;6.774;2023-05-10T13:59:56;13.40;;;8.30;;
13611;SDS011;6877;51.436;6.774;2023-05-10T14:02:23;11.10;;;7.25;;
13611;SDS011;6877;51.436;6.774;2023-05-10T14:04:55;10.07;;;6.90;;
13611;SDS011;6877;51.436;6.774;2023-05-10T14:07:22;9.70;;;6.85;;
13611;SDS011;6877;51.436;6.774;2023-05-10T14:09:48;12.95;;;8.73;;
13611;SDS011;6877;51.436;6.774;2023-05-10T14:12:14;10.88;;;7.35;;
13611;SDS011;6877;51.436;6.774;2023-05-10T14:14:41;12.57;;;8.45;;
13611;SDS011;6877;51.436;6.774;2023-05-10T14:17:12;11.48;;;8.88;;
13611;SDS011;6877;51.436;6.774;2023-05-10T14:19:39;13.15;;;8.80;;
13611;SDS011;6877;51.436;6.774;2023-05-10T14:22:06;12.98;;;8.77;;
13611;SDS011;6877;51.436;6.774;2023-05-10T14:24:32;13.68;;;8.95;;
13611;SDS011;6877;51.436;6.774;2023-05-10T14:26:59;10.95;;;7.35;;
13611;SDS011;6877;51.436;6.774;2023-05-10T14:29:26;12.38;;;8.02;;
13611;SDS011;6877;51.436;6.774;2023-05-10T14:31:53;10.70;;;6.93;;
13611;SDS011;6877;51.436;6.774;2023-05-10T14:34:19;9.60;;;6.15;;
13611;SDS011;6877;51.436;6.774;2023-05-10T14:36:46;10.50;;;7.60;;
13611;SDS011;6877;51.436;6.774;2023-05-10T14:39:13;11.82;;;8.57;;
13611;SDS011;6877;51.436;6.774;2023-05-10T14:41:40;12.45;;;8.27;;
13611;SDS011;6877;51.436;6.774;2023-05-10T14:44:09;12.52;;;7.75;;
13611;SDS011;6877;51.436;6.774;2023-05-10T14:46:36;13.35;;;8.80;;
13611;SDS011;6877;51.436;6.774;2023-05-10T14:49:03;10.75;;;7.07;;
13611;SDS011;6877;51.436;6.774;2023-05-10T14:51:33;13.07;;;8.18;;
13611;SDS011;6877;51.436;6.774;2023-05-10T14:54:00;12.63;;;7.90;;
13611;SDS011;6877;51.436;6.774;2023-05-10T14:56:26;13.35;;;9.57;;
13611;SDS011;6877;51.436;6.774;2023-05-10T14:58:53;16.20;;;10.90;;
13611;SDS011;6877;51.436;6.774;2023-05-10T15:01:20;19.63;;;11.13;;
13611;SDS011;6877;51.436;6.774;2023-05-10T15:03:47;21.02;;;12.32;;
13611;SDS011;6877;51.436;6.774;2023-05-10T15:06:14;17.52;;;10.57;;
13611;SDS011;6877;51.436;6.774;2023-05-10T15:08:42;20.38;;;10.27;;
13611;SDS011;6877;51.436;6.774;2023-05-10T15:11:09;19.00;;;10.65;;
13611;SDS011;6877;51.436;6.774;2023-05-10T15:13:36;17.67;;;10.15;;
13611;SDS011;6877;51.436;6.774;2023-05-10T15:16:02;25.67;;;12.50;;
13611;SDS011;6877;51.436;6.774;2023-05-10T15:18:29;17.48;;;10.95;;
13611;SDS011;6877;51.436;6.774;2023-05-10T15:20:55;21.23;;;11.77;;
13611;SDS011;6877;51.436;6.774;2023-05-10T15:23:22;19.30;;;10.70;;
13611;SDS011;6877;51.436;6.774;2023-05-10T15:25:48;22.50;;;13.52;;
13611;SDS011;6877;51.436;6.774;2023-05-10T15:28:16;20.25;;;12.30;;
13611;SDS011;6877;51.436;6.774;2023-05-10T15:30:42;22.20;;;12.43;;
13611;SDS011;6877;51.436;6.774;2023-05-10T15:33:09;17.02;;;11.13;;
13611;SDS011;6877;51.436;6.774;2023-05-10T15:35:40;11.32;;;6.15;;
13611;SDS011;6877;51.436;6.774;2023-05-10T15:38:12;6.90;;;4.95;;
13611;SDS011;6877;51.436;6.774;2023-05-10T15:40:38;5.57;;;3.50;;
13611;SDS011;6877;51.436;6.774;2023-05-10T15:43:05;5.07;;;3.65;;
13611;SDS011;6877;51.436;6.774;2023-05-10T15:45:31;5.95;;;3.03;;